Terminal Aerodrome Forecast
Issued by NWS

Home | Current Version | Previous Version | Text Only | Print | Product List | Glossary On
Versions: 1 2 3 4 5 6 7 8 9 10 11 12 13 14 15 16 17 18 19 20 21 22 23 24 25
000
FTUS41 KCAR 310500
TAFFVE
TAF
KFVE 310529Z 3106/0106 13005KT 5SM BR BKN020
     FM310800 00000KT 2SM BR BKN015
     FM311100 VRB03KT P6SM SCT022 BKN035
     FM312000 19006KT 6SM -SHRA VCTS SCT025CB BKN040 OVC100
     FM312200 VRB15G30KT 2SM TSRA BR OVC020CB
     FM010000 20004KT 4SM SHRA BR VCTS OVC018CB
     FM010100 20004KT 6SM -SHRA OVC025
     FM010400 VRB03KT P6SM VCSH OVC035=

USA.gov is the U.S. government's official web portal to all federal, state and local government web resources and services.